sensor_id;sensor_type;location;lat;lon;timestamp;temperature;humidity
72865;DHT22;61000;48.120;11.548;2023-02-05T00:00:50;1.50;99.90
72865;DHT22;61000;48.120;11.548;2023-02-05T00:03:18;1.50;99.90
72865;DHT22;61000;48.120;11.548;2023-02-05T00:05:45;1.50;99.90
72865;DHT22;61000;48.120;11.548;2023-02-05T00:08:12;1.40;99.90
72865;DHT22;61000;48.120;11.548;2023-02-05T00:10:38;1.40;99.90
72865;DHT22;61000;48.120;11.548;2023-02-05T00:13:05;1.40;99.90
72865;DHT22;61000;48.120;11.548;2023-02-05T00:15:34;1.40;99.90
72865;DHT22;61000;48.120;11.548;2023-02-05T00:18:01;1.30;99.90
72865;DHT22;61000;48.120;11.548;2023-02-05T00:20:30;1.30;99.90
72865;DHT22;61000;48.120;11.548;2023-02-05T00:22:57;1.20;99.90
72865;DHT22;61000;48.120;11.548;2023-02-05T00:25:24;1.20;99.90
72865;DHT22;61000;48.120;11.548;2023-02-05T00:27:51;1.20;99.90
72865;DHT22;61000;48.120;11.548;2023-02-05T00:30:19;1.20;99.90
72865;DHT22;61000;48.120;11.548;2023-02-05T00:32:46;1.10;99.90
72865;DHT22;61000;48.120;11.548;2023-02-05T00:35:12;1.10;99.90
72865;DHT22;61000;48.120;11.548;2023-02-05T00:37:41;1.10;99.90
72865;DHT22;61000;48.120;11.548;2023-02-05T00:40:10;1.10;99.90
72865;DHT22;61000;48.120;11.548;2023-02-05T00:42:36;1.10;99.90
72865;DHT22;61000;48.120;11.548;2023-02-05T00:45:04;1.10;99.90
72865;DHT22;61000;48.120;11.548;2023-02-05T00:47:31;1.10;99.90
72865;DHT22;61000;48.120;11.548;2023-02-05T00:49:58;1.10;99.90
72865;DHT22;61000;48.120;11.548;2023-02-05T00:52:24;1.10;99.90
72865;DHT22;61000;48.120;11.548;2023-02-05T00:54:53;1.10;99.90
72865;DHT22;61000;48.120;11.548;2023-02-05T00:57:20;1.10;99.90
72865;DHT22;61000;48.120;11.548;2023-02-05T00:59:49;1.10;99.90
72865;DHT22;61000;48.120;11.548;2023-02-05T01:02:17;1.10;99.90
72865;DHT22;61000;48.120;11.548;2023-02-05T01:04:48;1.10;99.90
72865;DHT22;61000;48.120;11.548;2023-02-05T01:07:15;1.10;99.90
72865;DHT22;61000;48.120;11.548;2023-02-05T01:09:41;1.10;99.90
72865;DHT22;61000;48.120;11.548;2023-02-05T01:12:10;1.00;99.90
72865;DHT22;61000;48.120;11.548;2023-02-05T01:14:38;1.10;99.90
72865;DHT22;61000;48.120;11.548;2023-02-05T01:17:06;1.00;99.90
72865;DHT22;61000;48.120;11.548;2023-02-05T01:19:34;1.00;99.90
72865;DHT22;61000;48.120;11.548;2023-02-05T01:22:01;1.00;99.90
72865;DHT22;61000;48.120;11.548;2023-02-05T01:24:28;1.00;99.90
72865;DHT22;61000;48.120;11.548;2023-02-05T01:26:55;1.00;99.90
72865;DHT22;61000;48.120;11.548;2023-02-05T01:29:25;1.00;99.90
72865;DHT22;61000;48.120;11.548;2023-02-05T01:31:52;1.10;99.90
72865;DHT22;61000;48.120;11.548;2023-02-05T01:34:20;1.00;99.90
72865;DHT22;61000;48.120;11.548;2023-02-05T01:36:47;1.10;99.90
72865;DHT22;61000;48.120;11.548;2023-02-05T01:39:14;1.10;99.90
72865;DHT22;61000;48.120;11.548;2023-02-05T01:41:42;1.00;99.90
72865;DHT22;61000;48.120;11.548;2023-02-05T01:44:12;1.00;99.90
72865;DHT22;61000;48.120;11.548;2023-02-05T01:46:42;1.00;99.90
72865;DHT22;61000;48.120;11.548;2023-02-05T01:49:13;1.00;99.90
72865;DHT22;61000;48.120;11.548;2023-02-05T01:54:08;0.90;99.90
72865;DHT22;61000;48.120;11.548;2023-02-05T01:56:37;0.90;99.90
72865;DHT22;61000;48.120;11.548;2023-02-05T01:59:09;0.90;99.90
72865;DHT22;61000;48.120;11.548;2023-02-05T02:01:38;0.80;99.90
72865;DHT22;61000;48.120;11.548;2023-02-05T02:04:08;0.80;99.90
72865;DHT22;61000;48.120;11.548;2023-02-05T02:06:37;0.80;99.90
72865;DHT22;61000;48.120;11.548;2023-02-05T02:09:05;0.90;99.90
72865;DHT22;61000;48.120;11.548;2023-02-05T02:11:34;0.70;99.90
72865;DHT22;61000;48.120;11.548;2023-02-05T02:14:04;0.70;99.90
72865;DHT22;61000;48.120;11.548;2023-02-05T02:16:33;0.70;99.90
72865;DHT22;61000;48.120;11.548;2023-02-05T02:19:02;0.60;99.90
72865;DHT22;61000;48.120;11.548;2023-02-05T02:27:37;0.60;99.90
72865;DHT22;61000;48.120;11.548;2023-02-05T02:30:08;0.60;99.90
72865;DHT22;61000;48.120;11.548;2023-02-05T02:32:39;0.60;99.90
72865;DHT22;61000;48.120;11.548;2023-02-05T02:35:10;0.70;99.90
72865;DHT22;61000;48.120;11.548;2023-02-05T02:37:45;0.70;99.90
72865;DHT22;61000;48.120;11.548;2023-02-05T02:40:19;0.70;99.90
72865;DHT22;61000;48.120;11.548;2023-02-05T02:42:54;0.70;99.90
72865;DHT22;61000;48.120;11.548;2023-02-05T02:45:25;0.70;99.90
72865;DHT22;61000;48.120;11.548;2023-02-05T02:47:57;0.70;99.90
72865;DHT22;61000;48.120;11.548;2023-02-05T02:50:27;0.70;99.90
72865;DHT22;61000;48.120;11.548;2023-02-05T02:53:00;0.60;99.90
72865;DHT22;61000;48.120;11.548;2023-02-05T02:55:30;0.60;99.90
72865;DHT22;61000;48.120;11.548;2023-02-05T02:58:01;0.60;99.90
72865;DHT22;61000;48.120;11.548;2023-02-05T03:00:30;0.50;99.90
72865;DHT22;61000;48.120;11.548;2023-02-05T03:03:02;0.50;99.90
72865;DHT22;61000;48.120;11.548;2023-02-05T03:05:30;0.40;99.90
72865;DHT22;61000;48.120;11.548;2023-02-05T03:08:03;0.40;99.90
72865;DHT22;61000;48.120;11.548;2023-02-05T03:10:36;0.40;99.90
72865;DHT22;61000;48.120;11.548;2023-02-05T03:13:08;0.30;99.90
72865;DHT22;61000;48.120;11.548;2023-02-05T03:15:35;0.30;99.90
72865;DHT22;61000;48.120;11.548;2023-02-05T03:18:02;0.30;99.90
72865;DHT22;61000;48.120;11.548;2023-02-05T03:20:33;0.30;99.90
72865;DHT22;61000;48.120;11.548;2023-02-05T03:23:01;0.40;99.90
72865;DHT22;61000;48.120;11.548;2023-02-05T03:25:28;0.30;99.90
72865;DHT22;61000;48.120;11.548;2023-02-05T03:27:57;0.30;99.90
72865;DHT22;61000;48.120;11.548;2023-02-05T03:30:31;0.20;99.90
72865;DHT22;61000;48.120;11.548;2023-02-05T03:33:07;0.20;99.90
72865;DHT22;61000;48.120;11.548;2023-02-05T03:35:43;0.20;99.90
72865;DHT22;61000;48.120;11.548;2023-02-05T03:38:28;0.20;99.90
72865;DHT22;61000;48.120;11.548;2023-02-05T03:41:00;0.20;99.90
72865;DHT22;61000;48.120;11.548;2023-02-05T03:43:36;0.10;99.90
72865;DHT22;61000;48.120;11.548;2023-02-05T03:46:12;0.00;99.90
72865;DHT22;61000;48.120;11.548;2023-02-05T03:48:51;0.10;99.90
72865;DHT22;61000;48.120;11.548;2023-02-05T03:51:27;0.00;99.90
72865;DHT22;61000;48.120;11.548;2023-02-05T03:54:04;0.00;99.90
72865;DHT22;61000;48.120;11.548;2023-02-05T03:56:41;0.00;99.90
72865;DHT22;61000;48.120;11.548;2023-02-05T03:59:11;-0.10;99.90
72865;DHT22;61000;48.120;11.548;2023-02-05T04:01:43;-0.10;99.90
72865;DHT22;61000;48.120;11.548;2023-02-05T04:04:12;-0.10;99.90
72865;DHT22;61000;48.120;11.548;2023-02-05T04:06:39;-0.20;99.90
72865;DHT22;61000;48.120;11.548;2023-02-05T04:09:08;-0.20;99.90
72865;DHT22;61000;48.120;11.548;2023-02-05T04:11:35;-0.20;99.90
72865;DHT22;61000;48.120;11.548;2023-02-05T04:14:03;-0.30;99.90
72865;DHT22;61000;48.120;11.548;2023-02-05T04:16:30;-0.30;99.90
72865;DHT22;61000;48.120;11.548;2023-02-05T04:19:00;-0.30;99.90
72865;DHT22;61000;48.120;11.548;2023-02-05T04:21:28;-0.30;99.90
72865;DHT22;61000;48.120;11.548;2023-02-05T04:23:55;-0.30;99.90
72865;DHT22;61000;48.120;11.548;2023-02-05T04:26:23;-0.30;99.90
72865;DHT22;61000;48.120;11.548;2023-02-05T04:28:58;-0.30;99.90
72865;DHT22;61000;48.120;11.548;2023-02-05T04:31:27;-0.30;99.90
72865;DHT22;61000;48.120;11.548;2023-02-05T04:33:54;-0.40;99.90
72865;DHT22;61000;48.120;11.548;2023-02-05T04:36:22;-0.40;99.90
72865;DHT22;61000;48.120;11.548;2023-02-05T04:38:49;-0.50;99.90
72865;DHT22;61000;48.120;11.548;2023-02-05T04:41:17;-0.50;99.90
72865;DHT22;61000;48.120;11.548;2023-02-05T04:43:44;-0.50;99.90
72865;DHT22;61000;48.120;11.548;2023-02-05T04:46:11;-0.50;99.90
72865;DHT22;61000;48.120;11.548;2023-02-05T04:48:38;-0.50;99.90
72865;DHT22;61000;48.120;11.548;2023-02-05T04:51:06;-0.50;99.90
72865;DHT22;61000;48.120;11.548;2023-02-05T04:53:35;-0.60;99.90
72865;DHT22;61000;48.120;11.548;2023-02-05T04:56:04;-0.50;99.90
72865;DHT22;61000;48.120;11.548;2023-02-05T04:58:31;-0.50;99.90
72865;DHT22;61000;48.120;11.548;2023-02-05T05:00:58;-0.60;99.90
72865;DHT22;61000;48.120;11.548;2023-02-05T05:03:25;-0.50;99.90
72865;DHT22;61000;48.120;11.548;2023-02-05T05:05:52;-0.60;99.90
72865;DHT22;61000;48.120;11.548;2023-02-05T05:08:18;-0.60;99.90
72865;DHT22;61000;48.120;11.548;2023-02-05T05:10:47;-0.60;99.90
72865;DHT22;61000;48.120;11.548;2023-02-05T05:13:13;-0.60;99.90
72865;DHT22;61000;48.120;11.548;2023-02-05T05:15:40;-0.60;99.90
72865;DHT22;61000;48.120;11.548;2023-02-05T05:18:07;-0.60;99.90
72865;DHT22;61000;48.120;11.548;2023-02-05T05:20:34;-0.70;99.90
72865;DHT22;61000;48.120;11.548;2023-02-05T05:23:01;-0.70;99.90
72865;DHT22;61000;48.120;11.548;2023-02-05T05:25:27;-0.70;99.90
72865;DHT22;61000;48.120;11.548;2023-02-05T05:27:56;-0.70;99.90
72865;DHT22;61000;48.120;11.548;2023-02-05T05:30:22;-0.70;99.90
72865;DHT22;61000;48.120;11.548;2023-02-05T05:32:49;-0.70;99.90
72865;DHT22;61000;48.120;11.548;2023-02-05T05:35:16;-0.70;99.90
72865;DHT22;61000;48.120;11.548;2023-02-05T05:37:43;-0.70;99.90
72865;DHT22;61000;48.120;11.548;2023-02-05T05:40:11;-0.70;99.90
72865;DHT22;61000;48.120;11.548;2023-02-05T05:42:57;-0.80;99.90
72865;DHT22;61000;48.120;11.548;2023-02-05T05:45:41;-0.80;99.90
72865;DHT22;61000;48.120;11.548;2023-02-05T05:48:08;-0.80;99.90
72865;DHT22;61000;48.120;11.548;2023-02-05T05:50:35;-0.80;99.90
72865;DHT22;61000;48.120;11.548;2023-02-05T05:53:02;-0.80;99.90
72865;DHT22;61000;48.120;11.548;2023-02-05T05:55:29;-0.80;99.90
72865;DHT22;61000;48.120;11.548;2023-02-05T05:57:57;-0.80;99.90
72865;DHT22;61000;48.120;11.548;2023-02-05T06:00:24;-0.80;99.90
72865;DHT22;61000;48.120;11.548;2023-02-05T06:02:50;-0.80;99.90
72865;DHT22;61000;48.120;11.548;2023-02-05T06:05:17;-0.80;99.90
72865;DHT22;61000;48.120;11.548;2023-02-05T06:07:44;-0.90;99.90
72865;DHT22;61000;48.120;11.548;2023-02-05T06:10:11;-0.90;99.90
72865;DHT22;61000;48.120;11.548;2023-02-05T06:12:38;-0.90;99.90
72865;DHT22;61000;48.120;11.548;2023-02-05T06:15:07;-0.90;99.90
72865;DHT22;61000;48.120;11.548;2023-02-05T06:17:34;-0.90;99.90
72865;DHT22;61000;48.120;11.548;2023-02-05T06:20:00;-0.90;99.90
72865;DHT22;61000;48.120;11.548;2023-02-05T06:22:27;-0.90;99.90
72865;DHT22;61000;48.120;11.548;2023-02-05T06:24:54;-0.90;99.90
72865;DHT22;61000;48.120;11.548;2023-02-05T06:27:21;-0.90;99.90
72865;DHT22;61000;48.120;11.548;2023-02-05T06:29:48;-0.80;99.90
72865;DHT22;61000;48.120;11.548;2023-02-05T06:32:16;-0.80;99.90
72865;DHT22;61000;48.120;11.548;2023-02-05T06:34:43;-0.70;99.90
72865;DHT22;61000;48.120;11.548;2023-02-05T06:37:10;-0.70;99.90
72865;DHT22;61000;48.120;11.548;2023-02-05T06:39:37;-0.70;99.90
72865;DHT22;61000;48.120;11.548;2023-02-05T06:42:04;-0.70;99.90
72865;DHT22;61000;48.120;11.548;2023-02-05T06:44:31;-0.70;99.90
72865;DHT22;61000;48.120;11.548;2023-02-05T06:46:58;-0.70;99.90
72865;DHT22;61000;48.120;11.548;2023-02-05T06:49:26;-0.80;99.90
72865;DHT22;61000;48.120;11.548;2023-02-05T06:51:53;-0.80;99.90
72865;DHT22;61000;48.120;11.548;2023-02-05T06:54:20;-0.70;99.90
72865;DHT22;61000;48.120;11.548;2023-02-05T06:56:47;-0.70;99.90
72865;DHT22;61000;48.120;11.548;2023-02-05T06:59:13;-0.70;99.90
72865;DHT22;61000;48.120;11.548;2023-02-05T07:01:40;-0.60;99.90
72865;DHT22;61000;48.120;11.548;2023-02-05T07:04:07;-0.60;99.90
72865;DHT22;61000;48.120;11.548;2023-02-05T07:06:35;-0.60;99.90
72865;DHT22;61000;48.120;11.548;2023-02-05T07:09:02;-0.60;99.90
72865;DHT22;61000;48.120;11.548;2023-02-05T07:11:30;-0.60;99.90
72865;DHT22;61000;48.120;11.548;2023-02-05T07:13:59;-0.60;99.90
72865;DHT22;61000;48.120;11.548;2023-02-05T07:16:26;-0.50;99.90
72865;DHT22;61000;48.120;11.548;2023-02-05T07:18:53;-0.50;99.90
72865;DHT22;61000;48.120;11.548;2023-02-05T07:21:19;-0.40;99.90
72865;DHT22;61000;48.120;11.548;2023-02-05T07:23:48;-0.40;99.90
72865;DHT22;61000;48.120;11.548;2023-02-05T07:26:16;-0.40;99.90
72865;DHT22;61000;48.120;11.548;2023-02-05T07:28:44;-0.40;99.90
72865;DHT22;61000;48.120;11.548;2023-02-05T07:31:12;-0.30;99.90
72865;DHT22;61000;48.120;11.548;2023-02-05T07:33:41;-0.30;99.90
72865;DHT22;61000;48.120;11.548;2023-02-05T07:36:09;-0.30;99.90
72865;DHT22;61000;48.120;11.548;2023-02-05T07:38:38;-0.30;99.90
72865;DHT22;61000;48.120;11.548;2023-02-05T07:41:07;-0.20;99.90
72865;DHT22;61000;48.120;11.548;2023-02-05T07:43:39;-0.20;99.90
72865;DHT22;61000;48.120;11.548;2023-02-05T07:46:07;-0.20;99.90
72865;DHT22;61000;48.120;11.548;2023-02-05T07:48:34;-0.10;99.90
72865;DHT22;61000;48.120;11.548;2023-02-05T07:51:01;-0.10;99.90
72865;DHT22;61000;48.120;11.548;2023-02-05T07:53:29;-0.10;99.90
72865;DHT22;61000;48.120;11.548;2023-02-05T07:55:56;-0.10;99.90
72865;DHT22;61000;48.120;11.548;2023-02-05T07:58:24;-0.10;99.90
72865;DHT22;61000;48.120;11.548;2023-02-05T08:00:54;0.00;99.90
72865;DHT22;61000;48.120;11.548;2023-02-05T08:03:21;0.00;99.90
72865;DHT22;61000;48.120;11.548;2023-02-05T08:05:48;0.00;99.90
72865;DHT22;61000;48.120;11.548;2023-02-05T08:08:14;0.00;99.90
72865;DHT22;61000;48.120;11.548;2023-02-05T08:10:41;0.00;99.90
72865;DHT22;61000;48.120;11.548;2023-02-05T08:13:08;0.00;99.90
72865;DHT22;61000;48.120;11.548;2023-02-05T08:15:38;0.10;99.90
72865;DHT22;61000;48.120;11.548;2023-02-05T08:18:05;0.10;99.90
72865;DHT22;61000;48.120;11.548;2023-02-05T08:20:32;0.10;99.90
72865;DHT22;61000;48.120;11.548;2023-02-05T08:22:58;0.20;99.90
72865;DHT22;61000;48.120;11.548;2023-02-05T08:25:29;0.20;99.90
72865;DHT22;61000;48.120;11.548;2023-02-05T08:27:56;0.30;99.90
72865;DHT22;61000;48.120;11.548;2023-02-05T08:30:23;0.30;99.90
72865;DHT22;61000;48.120;11.548;2023-02-05T08:32:52;0.40;99.90
72865;DHT22;61000;48.120;11.548;2023-02-05T08:35:18;0.40;99.90
72865;DHT22;61000;48.120;11.548;2023-02-05T08:37:45;0.50;99.90
72865;DHT22;61000;48.120;11.548;2023-02-05T08:40:12;0.60;99.90
72865;DHT22;61000;48.120;11.548;2023-02-05T08:42:39;0.70;99.90
72865;DHT22;61000;48.120;11.548;2023-02-05T08:45:07;0.70;99.90
72865;DHT22;61000;48.120;11.548;2023-02-05T08:47:34;0.80;99.90
72865;DHT22;61000;48.120;11.548;2023-02-05T08:50:02;0.80;99.90
72865;DHT22;61000;48.120;11.548;2023-02-05T08:52:29;0.80;99.90
72865;DHT22;61000;48.120;11.548;2023-02-05T08:54:57;0.90;99.90
72865;DHT22;61000;48.120;11.548;2023-02-05T08:57:26;0.90;99.90
72865;DHT22;61000;48.120;11.548;2023-02-05T08:59:53;1.00;99.90
72865;DHT22;61000;48.120;11.548;2023-02-05T09:02:19;1.10;99.90
72865;DHT22;61000;48.120;11.548;2023-02-05T09:04:46;1.20;99.90
72865;DHT22;61000;48.120;11.548;2023-02-05T09:07:15;1.30;99.90
72865;DHT22;61000;48.120;11.548;2023-02-05T09:09:42;1.40;99.90
72865;DHT22;61000;48.120;11.548;2023-02-05T09:12:08;1.50;99.90
72865;DHT22;61000;48.120;11.548;2023-02-05T09:14:36;1.60;99.90
72865;DHT22;61000;48.120;11.548;2023-02-05T09:17:03;1.70;99.90
72865;DHT22;61000;48.120;11.548;2023-02-05T09:19:33;1.90;99.90
72865;DHT22;61000;48.120;11.548;2023-02-05T09:22:00;2.00;99.90
72865;DHT22;61000;48.120;11.548;2023-02-05T09:24:28;2.00;99.90
72865;DHT22;61000;48.120;11.548;2023-02-05T09:26:56;2.10;99.90
72865;DHT22;61000;48.120;11.548;2023-02-05T09:29:22;2.20;99.90
72865;DHT22;61000;48.120;11.548;2023-02-05T09:31:49;2.30;99.90
72865;DHT22;61000;48.120;11.548;2023-02-05T09:34:16;2.50;99.90
72865;DHT22;61000;48.120;11.548;2023-02-05T09:36:43;2.90;99.90
72865;DHT22;61000;48.120;11.548;2023-02-05T09:39:11;4.10;99.90
72865;DHT22;61000;48.120;11.548;2023-02-05T09:41:43;5.70;98.20
72865;DHT22;61000;48.120;11.548;2023-02-05T09:46:52;7.60;92.40
72865;DHT22;61000;48.120;11.548;2023-02-05T09:49:26;8.40;93.30
72865;DHT22;61000;48.120;11.548;2023-02-05T09:51:58;8.90;90.40
72865;DHT22;61000;48.120;11.548;2023-02-05T09:54:29;8.40;90.60
72865;DHT22;61000;48.120;11.548;2023-02-05T09:57:02;7.30;90.30
72865;DHT22;61000;48.120;11.548;2023-02-05T09:59:30;7.00;92.00
72865;DHT22;61000;48.120;11.548;2023-02-05T10:02:00;7.50;91.50
72865;DHT22;61000;48.120;11.548;2023-02-05T10:04:28;8.70;91.30
72865;DHT22;61000;48.120;11.548;2023-02-05T10:07:18;9.50;86.80
72865;DHT22;61000;48.120;11.548;2023-02-05T10:10:09;9.60;80.70
72865;DHT22;61000;48.120;11.548;2023-02-05T10:15:48;9.10;82.20
72865;DHT22;61000;48.120;11.548;2023-02-05T10:18:24;8.40;84.40
72865;DHT22;61000;48.120;11.548;2023-02-05T10:21:01;7.70;86.60
72865;DHT22;61000;48.120;11.548;2023-02-05T10:23:45;7.20;89.20
72865;DHT22;61000;48.120;11.548;2023-02-05T10:26:15;6.90;90.40
72865;DHT22;61000;48.120;11.548;2023-02-05T10:31:39;6.30;92.20
72865;DHT22;61000;48.120;11.548;2023-02-05T10:34:17;6.30;92.50
72865;DHT22;61000;48.120;11.548;2023-02-05T10:36:47;6.00;92.90
72865;DHT22;61000;48.120;11.548;2023-02-05T10:39:17;6.10;92.70
72865;DHT22;61000;48.120;11.548;2023-02-05T10:41:46;5.90;93.10
72865;DHT22;61000;48.120;11.548;2023-02-05T10:44:22;5.80;93.40
72865;DHT22;61000;48.120;11.548;2023-02-05T10:46:53;5.80;93.70
72865;DHT22;61000;48.120;11.548;2023-02-05T10:49:25;5.80;93.80
72865;DHT22;61000;48.120;11.548;2023-02-05T10:51:54;5.70;94.00
72865;DHT22;61000;48.120;11.548;2023-02-05T10:54:27;5.50;94.20
72865;DHT22;61000;48.120;11.548;2023-02-05T10:56:54;5.50;94.40
72865;DHT22;61000;48.120;11.548;2023-02-05T10:59:26;5.60;94.80
72865;DHT22;61000;48.120;11.548;2023-02-05T11:01:55;5.50;94.00
72865;DHT22;61000;48.120;11.548;2023-02-05T11:04:30;5.40;93.90
72865;DHT22;61000;48.120;11.548;2023-02-05T11:07:00;5.30;93.50
72865;DHT22;61000;48.120;11.548;2023-02-05T11:09:32;5.10;93.70
72865;DHT22;61000;48.120;11.548;2023-02-05T11:12:02;5.10;94.00
72865;DHT22;61000;48.120;11.548;2023-02-05T11:14:34;5.20;94.30
72865;DHT22;61000;48.120;11.548;2023-02-05T11:17:06;5.30;94.10
72865;DHT22;61000;48.120;11.548;2023-02-05T11:19:34;5.20;93.90
72865;DHT22;61000;48.120;11.548;2023-02-05T11:24:32;5.00;94.20
72865;DHT22;61000;48.120;11.548;2023-02-05T11:27:23;5.00;94.80
72865;DHT22;61000;48.120;11.548;2023-02-05T11:29:53;5.00;94.80
72865;DHT22;61000;48.120;11.548;2023-02-05T11:32:21;4.90;94.90
72865;DHT22;61000;48.120;11.548;2023-02-05T11:34:49;4.90;94.80
72865;DHT22;61000;48.120;11.548;2023-02-05T11:37:17;4.90;94.90
72865;DHT22;61000;48.120;11.548;2023-02-05T11:39:46;4.80;95.10
72865;DHT22;61000;48.120;11.548;2023-02-05T11:42:20;4.80;95.60
72865;DHT22;61000;48.120;11.548;2023-02-05T11:44:50;4.70;95.90
72865;DHT22;61000;48.120;11.548;2023-02-05T11:47:25;4.80;96.10
72865;DHT22;61000;48.120;11.548;2023-02-05T11:49:53;4.70;96.20
72865;DHT22;61000;48.120;11.548;2023-02-05T11:54:51;4.70;95.90
72865;DHT22;61000;48.120;11.548;2023-02-05T11:57:32;4.60;96.20
72865;DHT22;61000;48.120;11.548;2023-02-05T12:00:02;4.60;96.40
72865;DHT22;61000;48.120;11.548;2023-02-05T12:02:45;4.60;96.40
72865;DHT22;61000;48.120;11.548;2023-02-05T12:05:17;4.50;96.40
72865;DHT22;61000;48.120;11.548;2023-02-05T12:07:48;4.50;96.50
72865;DHT22;61000;48.120;11.548;2023-02-05T12:10:18;4.50;96.40
72865;DHT22;61000;48.120;11.548;2023-02-05T12:13:01;4.40;96.70
72865;DHT22;61000;48.120;11.548;2023-02-05T12:15:33;4.40;96.90
72865;DHT22;61000;48.120;11.548;2023-02-05T12:18:12;4.30;97.20
72865;DHT22;61000;48.120;11.548;2023-02-05T12:20:47;4.40;97.20
72865;DHT22;61000;48.120;11.548;2023-02-05T12:23:35;4.40;97.30
72865;DHT22;61000;48.120;11.548;2023-02-05T12:26:25;4.40;97.20
72865;DHT22;61000;48.120;11.548;2023-02-05T12:29:12;4.40;97.00
72865;DHT22;61000;48.120;11.548;2023-02-05T12:31:52;4.40;97.10
72865;DHT22;61000;48.120;11.548;2023-02-05T12:34:29;4.40;97.10
72865;DHT22;61000;48.120;11.548;2023-02-05T12:37:11;4.40;97.00
72865;DHT22;61000;48.120;11.548;2023-02-05T12:39:45;4.40;97.00
72865;DHT22;61000;48.120;11.548;2023-02-05T12:42:32;4.40;97.00
72865;DHT22;61000;48.120;11.548;2023-02-05T12:45:23;4.40;97.20
72865;DHT22;61000;48.120;11.548;2023-02-05T12:48:04;4.30;97.40
72865;DHT22;61000;48.120;11.548;2023-02-05T12:50:47;4.30;97.60
72865;DHT22;61000;48.120;11.548;2023-02-05T12:53:36;4.30;97.90
72865;DHT22;61000;48.120;11.548;2023-02-05T12:56:39;4.40;97.90
72865;DHT22;61000;48.120;11.548;2023-02-05T12:59:13;4.40;97.80
72865;DHT22;61000;48.120;11.548;2023-02-05T13:01:45;4.40;97.80
72865;DHT22;61000;48.120;11.548;2023-02-05T13:04:21;4.30;97.90
72865;DHT22;61000;48.120;11.548;2023-02-05T13:06:55;4.30;98.00
72865;DHT22;61000;48.120;11.548;2023-02-05T13:09:29;4.30;98.00
72865;DHT22;61000;48.120;11.548;2023-02-05T13:12:01;4.30;98.30
72865;DHT22;61000;48.120;11.548;2023-02-05T13:14:35;4.20;98.60
72865;DHT22;61000;48.120;11.548;2023-02-05T13:17:09;4.20;98.90
72865;DHT22;61000;48.120;11.548;2023-02-05T13:19:38;4.10;99.40
72865;DHT22;61000;48.120;11.548;2023-02-05T13:22:14;4.10;99.80
72865;DHT22;61000;48.120;11.548;2023-02-05T13:25:02;4.00;99.90
72865;DHT22;61000;48.120;11.548;2023-02-05T13:30:39;4.00;99.90
72865;DHT22;61000;48.120;11.548;2023-02-05T13:33:08;4.00;99.90
72865;DHT22;61000;48.120;11.548;2023-02-05T13:35:42;3.90;99.90
72865;DHT22;61000;48.120;11.548;2023-02-05T13:38:36;3.90;99.90
72865;DHT22;61000;48.120;11.548;2023-02-05T13:41:29;3.80;99.90
72865;DHT22;61000;48.120;11.548;2023-02-05T13:44:25;3.70;99.90
72865;DHT22;61000;48.120;11.548;2023-02-05T13:47:25;3.70;99.90
72865;DHT22;61000;48.120;11.548;2023-02-05T13:50:21;3.60;99.90
72865;DHT22;61000;48.120;11.548;2023-02-05T13:53:10;3.70;99.90
72865;DHT22;61000;48.120;11.548;2023-02-05T13:58:58;3.60;99.90
72865;DHT22;61000;48.120;11.548;2023-02-05T14:01:28;3.50;99.90
72865;DHT22;61000;48.120;11.548;2023-02-05T14:03:59;3.50;99.90
72865;DHT22;61000;48.120;11.548;2023-02-05T14:06:29;3.50;99.90
72865;DHT22;61000;48.120;11.548;2023-02-05T14:09:03;3.50;99.90
72865;DHT22;61000;48.120;11.548;2023-02-05T14:11:51;3.40;99.90
72865;DHT22;61000;48.120;11.548;2023-02-05T14:14:26;3.40;99.90
72865;DHT22;61000;48.120;11.548;2023-02-05T14:16:54;3.40;99.90
72865;DHT22;61000;48.120;11.548;2023-02-05T14:19:24;3.40;99.90
72865;DHT22;61000;48.120;11.548;2023-02-05T14:22:01;3.30;99.90
72865;DHT22;61000;48.120;11.548;2023-02-05T14:24:52;3.20;99.90
72865;DHT22;61000;48.120;11.548;2023-02-05T14:30:35;3.30;99.90
72865;DHT22;61000;48.120;11.548;2023-02-05T14:33:27;3.30;99.90
72865;DHT22;61000;48.120;11.548;2023-02-05T14:35:55;3.20;99.90
72865;DHT22;61000;48.120;11.548;2023-02-05T14:38:25;3.20;99.90
72865;DHT22;61000;48.120;11.548;2023-02-05T14:41:02;3.20;99.90
72865;DHT22;61000;48.120;11.548;2023-02-05T14:43:32;3.20;99.90
72865;DHT22;61000;48.120;11.548;2023-02-05T14:46:04;3.10;99.90
72865;DHT22;61000;48.120;11.548;2023-02-05T14:48:35;3.10;99.90
72865;DHT22;61000;48.120;11.548;2023-02-05T14:53:35;3.10;99.90
72865;DHT22;61000;48.120;11.548;2023-02-05T14:56:04;3.20;99.90
72865;DHT22;61000;48.120;11.548;2023-02-05T14:58:34;3.00;99.90
72865;DHT22;61000;48.120;11.548;2023-02-05T15:01:30;3.00;99.90
72865;DHT22;61000;48.120;11.548;2023-02-05T15:04:21;3.00;99.90
72865;DHT22;61000;48.120;11.548;2023-02-05T15:06:51;3.00;99.90
72865;DHT22;61000;48.120;11.548;2023-02-05T15:09:21;3.00;99.90
72865;DHT22;61000;48.120;11.548;2023-02-05T15:12:02;3.00;99.90
72865;DHT22;61000;48.120;11.548;2023-02-05T15:14:39;3.00;99.90
72865;DHT22;61000;48.120;11.548;2023-02-05T15:17:35;3.00;99.90
72865;DHT22;61000;48.120;11.548;2023-02-05T15:20:14;3.00;99.90
72865;DHT22;61000;48.120;11.548;2023-02-05T15:22:50;3.00;99.90
72865;DHT22;61000;48.120;11.548;2023-02-05T15:25:26;3.00;99.90
72865;DHT22;61000;48.120;11.548;2023-02-05T15:27:58;2.90;99.90
72865;DHT22;61000;48.120;11.548;2023-02-05T15:30:30;2.90;99.90
72865;DHT22;61000;48.120;11.548;2023-02-05T15:33:04;2.90;99.90
72865;DHT22;61000;48.120;11.548;2023-02-05T15:35:33;2.90;99.90
72865;DHT22;61000;48.120;11.548;2023-02-05T15:38:07;2.90;99.90
72865;DHT22;61000;48.120;11.548;2023-02-05T15:40:41;3.00;99.90
72865;DHT22;61000;48.120;11.548;2023-02-05T15:43:14;2.90;99.90
72865;DHT22;61000;48.120;11.548;2023-02-05T15:45:41;2.80;99.90
72865;DHT22;61000;48.120;11.548;2023-02-05T15:48:13;2.80;99.90
72865;DHT22;61000;48.120;11.548;2023-02-05T15:50:46;2.80;99.90
72865;DHT22;61000;48.120;11.548;2023-02-05T15:53:21;3.10;99.90
72865;DHT22;61000;48.120;11.548;2023-02-05T15:55:51;2.70;99.90
72865;DHT22;61000;48.120;11.548;2023-02-05T15:58:20;2.60;99.90
72865;DHT22;61000;48.120;11.548;2023-02-05T16:00:49;2.70;99.90
72865;DHT22;61000;48.120;11.548;2023-02-05T16:03:25;2.60;99.90
72865;DHT22;61000;48.120;11.548;2023-02-05T16:05:53;2.60;99.90
72865;DHT22;61000;48.120;11.548;2023-02-05T16:08:21;2.60;99.90
72865;DHT22;61000;48.120;11.548;2023-02-05T16:10:51;2.60;99.90
72865;DHT22;61000;48.120;11.548;2023-02-05T16:13:23;2.50;99.90
72865;DHT22;61000;48.120;11.548;2023-02-05T16:15:57;2.60;99.90
72865;DHT22;61000;48.120;11.548;2023-02-05T16:18:34;2.50;99.90
72865;DHT22;61000;48.120;11.548;2023-02-05T16:21:07;2.50;99.90
72865;DHT22;61000;48.120;11.548;2023-02-05T16:23:41;2.50;99.90
72865;DHT22;61000;48.120;11.548;2023-02-05T16:26:14;2.50;99.90